Outremont, Canada
Current Conditions -  °F | °C
As of 12:00 AM on Tuesday 21 Oct 2014 (Local Time) from CYUL Reporting Station
Overcast Overcast  
Wind Chill: 39°   Ceiling: 4500
Heat Index: 43°   Visibility: 15mi
Dew Point: 37°   Wind: 7mph
Humidity: 81%   Direction: 40°NE
Pressure: 29.94"   Gusts: NA
Location:  45.51°N, 73.61°W
Report Text: CYUL 210400Z 04006KT 15SM BKN045 OVC080 06/03 A2994 RMK SC7AC1 SLP141
Loading
Personal Weather Stations






























Interactive Weather Map
Tropical Storm Tracking
New forecast layout! Learn more

10-Day Weather Forecast

Advertisements
Track Severe Weather on mobile